Mount Meridian, Indiana
Current Conditions -  °F | °C
As of 8:35 AM on Friday 28 Nov 2014 (Local Time) from K4I7 Reporting Station
Overcast Overcast  
Wind Chill: 14°   Ceiling: 7000
Heat Index: 21°   Visibility: 10mi
Dew Point: 18°   Wind: 6mph
Humidity: 86%   Direction: 180°S
Pressure: 30.35"   Gusts: NA
Location:  39.6767°N, 86.9214°W
Report Text: K4I7 281335Z AUTO 18005KT 10SM BKN070 OVC110 M06/M08 A3035 RMK AO2
Loading
Personal Weather Stations






























Interactive Weather Map New forecast layout! Learn more

10-Day Weather Forecast

Advertisements
Track Severe Weather on mobile